sensor_id;sensor_type;location;lat;lon;timestamp;temperature;humidity
46440;DHT22;32138;50.966;6.968;2023-04-07T00:00:04;8.60;99.90
46440;DHT22;32138;50.966;6.968;2023-04-07T00:01:05;8.70;99.90
46440;DHT22;32138;50.966;6.968;2023-04-07T00:02:06;8.70;99.90
46440;DHT22;32138;50.966;6.968;2023-04-07T00:03:07;8.80;99.90
46440;DHT22;32138;50.966;6.968;2023-04-07T00:04:08;8.70;99.90
46440;DHT22;32138;50.966;6.968;2023-04-07T00:05:09;8.70;99.90
46440;DHT22;32138;50.966;6.968;2023-04-07T00:06:09;8.50;99.90
46440;DHT22;32138;50.966;6.968;2023-04-07T00:07:10;8.40;99.90
46440;DHT22;32138;50.966;6.968;2023-04-07T00:08:11;8.50;99.90
46440;DHT22;32138;50.966;6.968;2023-04-07T00:09:12;8.50;99.90
46440;DHT22;32138;50.966;6.968;2023-04-07T00:10:13;8.50;99.90
46440;DHT22;32138;50.966;6.968;2023-04-07T00:11:13;8.60;99.90
46440;DHT22;32138;50.966;6.968;2023-04-07T00:12:14;8.60;99.90
46440;DHT22;32138;50.966;6.968;2023-04-07T00:13:15;8.60;99.90
46440;DHT22;32138;50.966;6.968;2023-04-07T00:14:16;8.60;99.90
46440;DHT22;32138;50.966;6.968;2023-04-07T00:15:17;8.50;99.90
46440;DHT22;32138;50.966;6.968;2023-04-07T00:16:17;8.60;99.90
46440;DHT22;32138;50.966;6.968;2023-04-07T00:17:18;8.50;99.90
46440;DHT22;32138;50.966;6.968;2023-04-07T00:18:19;8.50;99.90
46440;DHT22;32138;50.966;6.968;2023-04-07T00:19:20;8.50;99.90
46440;DHT22;32138;50.966;6.968;2023-04-07T00:20:20;8.50;99.90
46440;DHT22;32138;50.966;6.968;2023-04-07T00:21:22;8.50;99.90
46440;DHT22;32138;50.966;6.968;2023-04-07T00:22:23;8.40;99.90
46440;DHT22;32138;50.966;6.968;2023-04-07T00:23:23;8.40;99.90
46440;DHT22;32138;50.966;6.968;2023-04-07T00:24:24;8.50;99.90
46440;DHT22;32138;50.966;6.968;2023-04-07T00:25:25;8.70;99.90
46440;DHT22;32138;50.966;6.968;2023-04-07T00:26:26;8.60;99.90
46440;DHT22;32138;50.966;6.968;2023-04-07T00:27:30;8.60;99.90
46440;DHT22;32138;50.966;6.968;2023-04-07T00:28:31;8.60;99.90
46440;DHT22;32138;50.966;6.968;2023-04-07T00:29:32;8.50;99.90
46440;DHT22;32138;50.966;6.968;2023-04-07T00:30:32;8.40;99.90
46440;DHT22;32138;50.966;6.968;2023-04-07T00:31:33;8.50;99.90
46440;DHT22;32138;50.966;6.968;2023-04-07T00:32:34;8.50;99.90
46440;DHT22;32138;50.966;6.968;2023-04-07T00:33:35;8.60;99.90
46440;DHT22;32138;50.966;6.968;2023-04-07T00:34:36;8.50;99.90
46440;DHT22;32138;50.966;6.968;2023-04-07T00:35:37;8.50;99.90
46440;DHT22;32138;50.966;6.968;2023-04-07T00:36:37;8.50;99.90
46440;DHT22;32138;50.966;6.968;2023-04-07T00:37:38;8.60;99.90
46440;DHT22;32138;50.966;6.968;2023-04-07T00:38:39;8.60;99.90
46440;DHT22;32138;50.966;6.968;2023-04-07T00:39:40;8.60;99.90
46440;DHT22;32138;50.966;6.968;2023-04-07T00:40:40;8.60;99.90
46440;DHT22;32138;50.966;6.968;2023-04-07T00:41:41;8.60;99.90
46440;DHT22;32138;50.966;6.968;2023-04-07T00:42:42;8.60;99.90
46440;DHT22;32138;50.966;6.968;2023-04-07T00:43:43;8.60;99.90
46440;DHT22;32138;50.966;6.968;2023-04-07T00:44:45;8.60;99.90
46440;DHT22;32138;50.966;6.968;2023-04-07T00:45:46;8.60;99.90
46440;DHT22;32138;50.966;6.968;2023-04-07T00:46:47;8.60;99.90
46440;DHT22;32138;50.966;6.968;2023-04-07T00:47:48;8.70;99.90
46440;DHT22;32138;50.966;6.968;2023-04-07T00:48:48;8.70;99.90
46440;DHT22;32138;50.966;6.968;2023-04-07T00:49:49;8.70;99.90
46440;DHT22;32138;50.966;6.968;2023-04-07T00:50:50;8.60;99.90
46440;DHT22;32138;50.966;6.968;2023-04-07T00:51:51;8.70;99.90
46440;DHT22;32138;50.966;6.968;2023-04-07T00:52:52;8.80;99.90
46440;DHT22;32138;50.966;6.968;2023-04-07T00:53:54;8.60;99.90
46440;DHT22;32138;50.966;6.968;2023-04-07T00:54:55;8.70;99.90
46440;DHT22;32138;50.966;6.968;2023-04-07T00:55:55;8.60;99.90
46440;DHT22;32138;50.966;6.968;2023-04-07T00:56:56;8.60;99.90
46440;DHT22;32138;50.966;6.968;2023-04-07T00:57:57;8.60;99.90
46440;DHT22;32138;50.966;6.968;2023-04-07T00:58:58;8.60;99.90
46440;DHT22;32138;50.966;6.968;2023-04-07T00:59:58;8.50;99.90
46440;DHT22;32138;50.966;6.968;2023-04-07T01:01:14;8.60;99.90
46440;DHT22;32138;50.966;6.968;2023-04-07T01:02:20;8.60;99.90
46440;DHT22;32138;50.966;6.968;2023-04-07T01:03:45;8.60;99.90
46440;DHT22;32138;50.966;6.968;2023-04-07T01:06:34;8.70;99.90
46440;DHT22;32138;50.966;6.968;2023-04-07T01:09:26;8.90;99.90
46440;DHT22;32138;50.966;6.968;2023-04-07T01:10:43;9.00;99.90
46440;DHT22;32138;50.966;6.968;2023-04-07T01:12:04;9.00;99.90
46440;DHT22;32138;50.966;6.968;2023-04-07T01:13:08;9.10;99.90
46440;DHT22;32138;50.966;6.968;2023-04-07T01:14:18;8.90;99.90
46440;DHT22;32138;50.966;6.968;2023-04-07T01:15:21;9.00;99.90
46440;DHT22;32138;50.966;6.968;2023-04-07T01:16:56;8.90;99.90
46440;DHT22;32138;50.966;6.968;2023-04-07T01:18:11;8.90;99.90
46440;DHT22;32138;50.966;6.968;2023-04-07T01:20:16;8.90;99.90
46440;DHT22;32138;50.966;6.968;2023-04-07T01:21:19;8.80;99.90
46440;DHT22;32138;50.966;6.968;2023-04-07T01:22:27;8.80;99.90
46440;DHT22;32138;50.966;6.968;2023-04-07T01:25:26;8.90;99.90
46440;DHT22;32138;50.966;6.968;2023-04-07T01:26:32;9.00;99.90
46440;DHT22;32138;50.966;6.968;2023-04-07T01:27:35;9.20;99.90
46440;DHT22;32138;50.966;6.968;2023-04-07T01:30:17;9.30;99.90
46440;DHT22;32138;50.966;6.968;2023-04-07T01:31:18;9.30;99.90
46440;DHT22;32138;50.966;6.968;2023-04-07T01:32:19;9.40;99.90
46440;DHT22;32138;50.966;6.968;2023-04-07T01:33:22;9.40;99.90
46440;DHT22;32138;50.966;6.968;2023-04-07T01:34:26;9.30;99.90
46440;DHT22;32138;50.966;6.968;2023-04-07T01:35:32;9.30;99.90
46440;DHT22;32138;50.966;6.968;2023-04-07T01:36:34;9.30;99.90
46440;DHT22;32138;50.966;6.968;2023-04-07T01:37:36;9.40;99.90
46440;DHT22;32138;50.966;6.968;2023-04-07T01:38:37;9.50;99.90
46440;DHT22;32138;50.966;6.968;2023-04-07T01:39:39;9.50;99.90
46440;DHT22;32138;50.966;6.968;2023-04-07T01:40:40;9.60;99.90
46440;DHT22;32138;50.966;6.968;2023-04-07T01:41:41;9.60;99.90
46440;DHT22;32138;50.966;6.968;2023-04-07T01:42:43;9.50;99.90
46440;DHT22;32138;50.966;6.968;2023-04-07T01:43:46;9.50;99.90
46440;DHT22;32138;50.966;6.968;2023-04-07T01:44:47;9.50;99.90
46440;DHT22;32138;50.966;6.968;2023-04-07T01:45:50;9.40;99.90
46440;DHT22;32138;50.966;6.968;2023-04-07T01:46:51;9.40;99.90
46440;DHT22;32138;50.966;6.968;2023-04-07T01:47:53;9.50;99.90
46440;DHT22;32138;50.966;6.968;2023-04-07T01:48:55;9.60;99.90
46440;DHT22;32138;50.966;6.968;2023-04-07T01:49:57;9.60;99.90
46440;DHT22;32138;50.966;6.968;2023-04-07T01:50:58;9.70;99.90
46440;DHT22;32138;50.966;6.968;2023-04-07T01:52:00;9.70;99.90
46440;DHT22;32138;50.966;6.968;2023-04-07T01:53:02;9.70;99.90
46440;DHT22;32138;50.966;6.968;2023-04-07T01:54:04;9.60;99.90
46440;DHT22;32138;50.966;6.968;2023-04-07T01:55:06;9.70;99.90
46440;DHT22;32138;50.966;6.968;2023-04-07T01:56:07;9.60;99.90
46440;DHT22;32138;50.966;6.968;2023-04-07T01:57:08;9.60;99.90
46440;DHT22;32138;50.966;6.968;2023-04-07T01:58:08;9.70;99.90
46440;DHT22;32138;50.966;6.968;2023-04-07T01:59:10;9.70;99.90
46440;DHT22;32138;50.966;6.968;2023-04-07T02:00:11;9.80;99.90
46440;DHT22;32138;50.966;6.968;2023-04-07T02:01:13;9.80;99.90
46440;DHT22;32138;50.966;6.968;2023-04-07T02:02:14;9.80;99.90
46440;DHT22;32138;50.966;6.968;2023-04-07T02:03:22;9.80;99.90
46440;DHT22;32138;50.966;6.968;2023-04-07T02:04:51;9.90;99.90
46440;DHT22;32138;50.966;6.968;2023-04-07T02:05:58;9.90;99.90
46440;DHT22;32138;50.966;6.968;2023-04-07T02:07:08;9.90;99.90
46440;DHT22;32138;50.966;6.968;2023-04-07T02:08:13;10.00;99.90
46440;DHT22;32138;50.966;6.968;2023-04-07T02:09:18;10.00;99.90
46440;DHT22;32138;50.966;6.968;2023-04-07T02:10:22;10.00;99.90
46440;DHT22;32138;50.966;6.968;2023-04-07T02:11:24;10.00;99.90
46440;DHT22;32138;50.966;6.968;2023-04-07T02:12:28;10.00;99.90
46440;DHT22;32138;50.966;6.968;2023-04-07T02:13:29;10.00;99.90
46440;DHT22;32138;50.966;6.968;2023-04-07T02:14:31;10.00;99.90
46440;DHT22;32138;50.966;6.968;2023-04-07T02:15:33;10.00;99.90
46440;DHT22;32138;50.966;6.968;2023-04-07T02:16:36;10.00;99.90
46440;DHT22;32138;50.966;6.968;2023-04-07T02:17:40;10.00;99.90
46440;DHT22;32138;50.966;6.968;2023-04-07T02:18:43;10.10;99.90
46440;DHT22;32138;50.966;6.968;2023-04-07T02:19:46;10.10;99.90
46440;DHT22;32138;50.966;6.968;2023-04-07T02:20:49;10.20;99.90
46440;DHT22;32138;50.966;6.968;2023-04-07T02:21:51;10.20;99.90
46440;DHT22;32138;50.966;6.968;2023-04-07T02:22:53;10.20;99.90
46440;DHT22;32138;50.966;6.968;2023-04-07T02:23:55;10.20;99.90
46440;DHT22;32138;50.966;6.968;2023-04-07T02:24:56;10.20;99.90
46440;DHT22;32138;50.966;6.968;2023-04-07T02:25:56;10.20;99.90
46440;DHT22;32138;50.966;6.968;2023-04-07T02:26:57;10.20;99.90
46440;DHT22;32138;50.966;6.968;2023-04-07T02:28:00;10.30;99.90
46440;DHT22;32138;50.966;6.968;2023-04-07T02:29:02;10.30;99.90
46440;DHT22;32138;50.966;6.968;2023-04-07T02:30:03;10.30;99.90
46440;DHT22;32138;50.966;6.968;2023-04-07T02:31:05;10.30;99.90
46440;DHT22;32138;50.966;6.968;2023-04-07T02:32:06;10.20;99.90
46440;DHT22;32138;50.966;6.968;2023-04-07T02:33:06;10.30;99.90
46440;DHT22;32138;50.966;6.968;2023-04-07T02:34:07;10.30;99.90
46440;DHT22;32138;50.966;6.968;2023-04-07T02:35:08;10.40;99.90
46440;DHT22;32138;50.966;6.968;2023-04-07T02:36:10;10.30;99.90
46440;DHT22;32138;50.966;6.968;2023-04-07T02:37:10;10.30;99.90
46440;DHT22;32138;50.966;6.968;2023-04-07T02:38:11;10.30;99.90
46440;DHT22;32138;50.966;6.968;2023-04-07T02:39:12;10.30;99.90
46440;DHT22;32138;50.966;6.968;2023-04-07T02:40:13;10.30;99.90
46440;DHT22;32138;50.966;6.968;2023-04-07T02:41:15;10.30;99.90
46440;DHT22;32138;50.966;6.968;2023-04-07T02:42:15;10.30;99.90
46440;DHT22;32138;50.966;6.968;2023-04-07T02:43:16;10.30;99.90
46440;DHT22;32138;50.966;6.968;2023-04-07T02:44:18;10.30;99.90
46440;DHT22;32138;50.966;6.968;2023-04-07T02:45:19;10.30;99.90
46440;DHT22;32138;50.966;6.968;2023-04-07T02:46:20;10.40;99.90
46440;DHT22;32138;50.966;6.968;2023-04-07T02:47:21;10.40;99.90
46440;DHT22;32138;50.966;6.968;2023-04-07T02:48:21;10.40;99.90
46440;DHT22;32138;50.966;6.968;2023-04-07T02:49:22;10.40;99.90
46440;DHT22;32138;50.966;6.968;2023-04-07T02:50:23;10.30;99.90
46440;DHT22;32138;50.966;6.968;2023-04-07T02:51:25;10.40;99.90
46440;DHT22;32138;50.966;6.968;2023-04-07T02:52:26;10.30;99.90
46440;DHT22;32138;50.966;6.968;2023-04-07T02:53:27;10.30;99.90
46440;DHT22;32138;50.966;6.968;2023-04-07T02:54:27;10.30;99.90
46440;DHT22;32138;50.966;6.968;2023-04-07T02:55:28;10.30;99.90
46440;DHT22;32138;50.966;6.968;2023-04-07T02:56:29;10.30;99.90
46440;DHT22;32138;50.966;6.968;2023-04-07T02:57:30;10.30;99.90
46440;DHT22;32138;50.966;6.968;2023-04-07T02:58:31;10.30;99.90
46440;DHT22;32138;50.966;6.968;2023-04-07T02:59:32;10.40;99.90
46440;DHT22;32138;50.966;6.968;2023-04-07T03:00:33;10.40;99.90
46440;DHT22;32138;50.966;6.968;2023-04-07T03:01:34;10.40;99.90
46440;DHT22;32138;50.966;6.968;2023-04-07T03:02:35;10.40;99.90
46440;DHT22;32138;50.966;6.968;2023-04-07T03:03:36;10.30;99.90
46440;DHT22;32138;50.966;6.968;2023-04-07T03:04:38;10.30;99.90
46440;DHT22;32138;50.966;6.968;2023-04-07T03:05:39;10.30;99.90
46440;DHT22;32138;50.966;6.968;2023-04-07T03:06:40;10.30;99.90
46440;DHT22;32138;50.966;6.968;2023-04-07T03:07:40;10.30;99.90
46440;DHT22;32138;50.966;6.968;2023-04-07T03:08:41;10.40;99.90
46440;DHT22;32138;50.966;6.968;2023-04-07T03:09:42;10.40;99.90
46440;DHT22;32138;50.966;6.968;2023-04-07T03:10:43;10.40;99.90
46440;DHT22;32138;50.966;6.968;2023-04-07T03:11:43;10.40;99.90
46440;DHT22;32138;50.966;6.968;2023-04-07T03:12:44;10.40;99.90
46440;DHT22;32138;50.966;6.968;2023-04-07T03:13:45;10.40;99.90
46440;DHT22;32138;50.966;6.968;2023-04-07T03:14:45;10.40;99.90
46440;DHT22;32138;50.966;6.968;2023-04-07T03:15:46;10.50;99.90
46440;DHT22;32138;50.966;6.968;2023-04-07T03:16:47;10.50;99.90
46440;DHT22;32138;50.966;6.968;2023-04-07T03:17:48;10.50;99.90
46440;DHT22;32138;50.966;6.968;2023-04-07T03:18:48;10.40;99.90
46440;DHT22;32138;50.966;6.968;2023-04-07T03:19:49;10.30;99.90
46440;DHT22;32138;50.966;6.968;2023-04-07T03:20:51;10.40;99.90
46440;DHT22;32138;50.966;6.968;2023-04-07T03:21:52;10.30;99.90
46440;DHT22;32138;50.966;6.968;2023-04-07T03:22:53;10.30;99.90
46440;DHT22;32138;50.966;6.968;2023-04-07T03:23:54;10.30;99.90
46440;DHT22;32138;50.966;6.968;2023-04-07T03:24:55;10.30;99.90
46440;DHT22;32138;50.966;6.968;2023-04-07T03:25:56;10.30;99.90
46440;DHT22;32138;50.966;6.968;2023-04-07T03:26:57;10.30;99.90
46440;DHT22;32138;50.966;6.968;2023-04-07T03:27:58;10.30;99.90
46440;DHT22;32138;50.966;6.968;2023-04-07T03:28:59;10.30;99.90
46440;DHT22;32138;50.966;6.968;2023-04-07T03:29:59;10.30;99.90
46440;DHT22;32138;50.966;6.968;2023-04-07T03:31:00;10.30;99.90
46440;DHT22;32138;50.966;6.968;2023-04-07T03:32:01;10.30;99.90
46440;DHT22;32138;50.966;6.968;2023-04-07T03:33:01;10.30;99.90
46440;DHT22;32138;50.966;6.968;2023-04-07T03:34:03;10.40;99.90
46440;DHT22;32138;50.966;6.968;2023-04-07T03:35:04;10.40;99.90
46440;DHT22;32138;50.966;6.968;2023-04-07T03:36:06;10.40;99.90
46440;DHT22;32138;50.966;6.968;2023-04-07T03:37:07;10.30;99.90
46440;DHT22;32138;50.966;6.968;2023-04-07T03:38:08;10.30;99.90
46440;DHT22;32138;50.966;6.968;2023-04-07T03:39:09;10.40;99.90
46440;DHT22;32138;50.966;6.968;2023-04-07T03:40:10;10.40;99.90
46440;DHT22;32138;50.966;6.968;2023-04-07T03:41:11;10.40;99.90
46440;DHT22;32138;50.966;6.968;2023-04-07T03:42:12;10.40;99.90
46440;DHT22;32138;50.966;6.968;2023-04-07T03:43:12;10.40;99.90
46440;DHT22;32138;50.966;6.968;2023-04-07T03:44:15;10.40;99.90
46440;DHT22;32138;50.966;6.968;2023-04-07T03:45:16;10.30;99.90
46440;DHT22;32138;50.966;6.968;2023-04-07T03:46:18;10.30;99.90
46440;DHT22;32138;50.966;6.968;2023-04-07T03:47:20;10.30;99.90
46440;DHT22;32138;50.966;6.968;2023-04-07T03:48:22;10.40;99.90
46440;DHT22;32138;50.966;6.968;2023-04-07T03:49:22;10.40;99.90
46440;DHT22;32138;50.966;6.968;2023-04-07T03:50:23;10.40;99.90
46440;DHT22;32138;50.966;6.968;2023-04-07T03:51:24;10.40;99.90
46440;DHT22;32138;50.966;6.968;2023-04-07T03:52:25;10.40;99.90
46440;DHT22;32138;50.966;6.968;2023-04-07T03:53:25;10.40;99.90
46440;DHT22;32138;50.966;6.968;2023-04-07T03:54:26;10.40;99.90
46440;DHT22;32138;50.966;6.968;2023-04-07T03:55:27;10.30;99.90
46440;DHT22;32138;50.966;6.968;2023-04-07T03:56:28;10.30;99.90
46440;DHT22;32138;50.966;6.968;2023-04-07T03:57:28;10.30;99.90
46440;DHT22;32138;50.966;6.968;2023-04-07T03:58:29;10.20;99.90
46440;DHT22;32138;50.966;6.968;2023-04-07T03:59:30;10.10;99.90
46440;DHT22;32138;50.966;6.968;2023-04-07T04:00:31;10.20;99.90
46440;DHT22;32138;50.966;6.968;2023-04-07T04:01:32;10.20;99.90
46440;DHT22;32138;50.966;6.968;2023-04-07T04:02:33;10.20;99.90
46440;DHT22;32138;50.966;6.968;2023-04-07T04:03:34;10.20;99.90
46440;DHT22;32138;50.966;6.968;2023-04-07T04:04:35;10.30;99.90
46440;DHT22;32138;50.966;6.968;2023-04-07T04:05:35;10.30;99.90
46440;DHT22;32138;50.966;6.968;2023-04-07T04:06:36;10.30;99.90
46440;DHT22;32138;50.966;6.968;2023-04-07T04:07:37;10.30;99.90
46440;DHT22;32138;50.966;6.968;2023-04-07T04:08:38;10.30;99.90
46440;DHT22;32138;50.966;6.968;2023-04-07T04:09:38;10.30;99.90
46440;DHT22;32138;50.966;6.968;2023-04-07T04:10:39;10.20;99.90
46440;DHT22;32138;50.966;6.968;2023-04-07T04:11:40;10.20;99.90
46440;DHT22;32138;50.966;6.968;2023-04-07T04:12:41;10.20;99.90
46440;DHT22;32138;50.966;6.968;2023-04-07T04:13:42;10.10;99.90
46440;DHT22;32138;50.966;6.968;2023-04-07T04:14:42;10.20;99.90
46440;DHT22;32138;50.966;6.968;2023-04-07T04:15:43;10.20;99.90
46440;DHT22;32138;50.966;6.968;2023-04-07T04:16:44;10.20;99.90
46440;DHT22;32138;50.966;6.968;2023-04-07T04:17:44;10.20;99.90
46440;DHT22;32138;50.966;6.968;2023-04-07T04:18:45;10.10;99.90
46440;DHT22;32138;50.966;6.968;2023-04-07T04:19:46;10.10;99.90
46440;DHT22;32138;50.966;6.968;2023-04-07T04:20:47;10.10;99.90
46440;DHT22;32138;50.966;6.968;2023-04-07T04:21:48;10.10;99.90
46440;DHT22;32138;50.966;6.968;2023-04-07T04:22:48;10.10;99.90
46440;DHT22;32138;50.966;6.968;2023-04-07T04:23:49;10.10;99.90
46440;DHT22;32138;50.966;6.968;2023-04-07T04:24:50;10.10;99.90
46440;DHT22;32138;50.966;6.968;2023-04-07T04:25:51;10.10;99.90
46440;DHT22;32138;50.966;6.968;2023-04-07T04:26:51;10.10;99.90
46440;DHT22;32138;50.966;6.968;2023-04-07T04:27:52;10.10;99.90
46440;DHT22;32138;50.966;6.968;2023-04-07T04:28:53;10.10;99.90
46440;DHT22;32138;50.966;6.968;2023-04-07T04:29:53;10.20;99.90
46440;DHT22;32138;50.966;6.968;2023-04-07T04:30:54;10.20;99.90
46440;DHT22;32138;50.966;6.968;2023-04-07T04:31:55;10.30;99.90
46440;DHT22;32138;50.966;6.968;2023-04-07T04:32:56;10.20;99.90
46440;DHT22;32138;50.966;6.968;2023-04-07T04:33:56;10.10;99.90
46440;DHT22;32138;50.966;6.968;2023-04-07T04:34:57;10.20;99.90
46440;DHT22;32138;50.966;6.968;2023-04-07T04:35:58;10.20;99.90
46440;DHT22;32138;50.966;6.968;2023-04-07T04:36:59;10.20;99.90
46440;DHT22;32138;50.966;6.968;2023-04-07T04:37:59;10.10;99.90
46440;DHT22;32138;50.966;6.968;2023-04-07T04:39:00;10.00;99.90
46440;DHT22;32138;50.966;6.968;2023-04-07T04:40:01;10.00;99.90
46440;DHT22;32138;50.966;6.968;2023-04-07T04:41:01;10.10;99.90
46440;DHT22;32138;50.966;6.968;2023-04-07T04:42:04;10.00;99.90
46440;DHT22;32138;50.966;6.968;2023-04-07T04:43:05;10.00;99.90
46440;DHT22;32138;50.966;6.968;2023-04-07T04:44:06;10.10;99.90
46440;DHT22;32138;50.966;6.968;2023-04-07T04:45:07;10.10;99.90
46440;DHT22;32138;50.966;6.968;2023-04-07T04:46:08;10.10;99.90
46440;DHT22;32138;50.966;6.968;2023-04-07T04:47:09;10.20;99.90
46440;DHT22;32138;50.966;6.968;2023-04-07T04:48:10;10.10;99.90
46440;DHT22;32138;50.966;6.968;2023-04-07T04:49:10;10.10;99.90
46440;DHT22;32138;50.966;6.968;2023-04-07T04:50:11;10.10;99.90
46440;DHT22;32138;50.966;6.968;2023-04-07T04:51:12;10.20;99.90
46440;DHT22;32138;50.966;6.968;2023-04-07T04:52:13;10.10;99.90
46440;DHT22;32138;50.966;6.968;2023-04-07T04:53:13;10.20;99.90
46440;DHT22;32138;50.966;6.968;2023-04-07T04:54:15;10.30;99.90
46440;DHT22;32138;50.966;6.968;2023-04-07T04:55:16;10.30;99.90
46440;DHT22;32138;50.966;6.968;2023-04-07T04:56:17;10.20;99.90
46440;DHT22;32138;50.966;6.968;2023-04-07T04:57:17;10.30;99.90
46440;DHT22;32138;50.966;6.968;2023-04-07T04:58:19;10.30;99.90
46440;DHT22;32138;50.966;6.968;2023-04-07T04:59:20;10.30;99.90
46440;DHT22;32138;50.966;6.968;2023-04-07T05:00:22;10.20;99.90
46440;DHT22;32138;50.966;6.968;2023-04-07T05:01:22;10.20;99.90
46440;DHT22;32138;50.966;6.968;2023-04-07T05:02:23;10.10;99.90
46440;DHT22;32138;50.966;6.968;2023-04-07T05:03:25;10.20;99.90
46440;DHT22;32138;50.966;6.968;2023-04-07T05:04:27;10.20;99.90
46440;DHT22;32138;50.966;6.968;2023-04-07T05:05:28;10.20;99.90
46440;DHT22;32138;50.966;6.968;2023-04-07T05:06:29;10.10;99.90
46440;DHT22;32138;50.966;6.968;2023-04-07T05:07:30;10.20;99.90
46440;DHT22;32138;50.966;6.968;2023-04-07T05:08:31;10.20;99.90
46440;DHT22;32138;50.966;6.968;2023-04-07T05:09:32;10.10;99.90
46440;DHT22;32138;50.966;6.968;2023-04-07T05:10:36;10.10;99.90
46440;DHT22;32138;50.966;6.968;2023-04-07T05:11:39;10.10;99.90
46440;DHT22;32138;50.966;6.968;2023-04-07T05:12:40;10.20;99.90
46440;DHT22;32138;50.966;6.968;2023-04-07T05:13:41;10.20;99.90
46440;DHT22;32138;50.966;6.968;2023-04-07T05:14:41;10.20;99.90
46440;DHT22;32138;50.966;6.968;2023-04-07T05:15:42;10.20;99.90
46440;DHT22;32138;50.966;6.968;2023-04-07T05:16:43;10.20;99.90
46440;DHT22;32138;50.966;6.968;2023-04-07T05:17:44;10.20;99.90
46440;DHT22;32138;50.966;6.968;2023-04-07T05:18:49;10.30;99.90
46440;DHT22;32138;50.966;6.968;2023-04-07T05:19:50;10.30;99.90
46440;DHT22;32138;50.966;6.968;2023-04-07T05:20:51;10.30;99.90
46440;DHT22;32138;50.966;6.968;2023-04-07T05:21:52;10.20;99.90
46440;DHT22;32138;50.966;6.968;2023-04-07T05:22:52;10.10;99.90
46440;DHT22;32138;50.966;6.968;2023-04-07T05:23:53;10.10;99.90
46440;DHT22;32138;50.966;6.968;2023-04-07T05:24:54;10.20;99.90
46440;DHT22;32138;50.966;6.968;2023-04-07T05:25:54;10.20;99.90
46440;DHT22;32138;50.966;6.968;2023-04-07T05:26:55;10.10;99.90
46440;DHT22;32138;50.966;6.968;2023-04-07T05:27:57;10.10;99.90
46440;DHT22;32138;50.966;6.968;2023-04-07T05:28:59;10.10;99.90
46440;DHT22;32138;50.966;6.968;2023-04-07T05:29:59;10.00;99.90
46440;DHT22;32138;50.966;6.968;2023-04-07T05:31:00;10.00;99.90
46440;DHT22;32138;50.966;6.968;2023-04-07T05:32:01;10.10;99.90
46440;DHT22;32138;50.966;6.968;2023-04-07T05:33:02;10.20;99.90
46440;DHT22;32138;50.966;6.968;2023-04-07T05:34:02;10.20;99.90
46440;DHT22;32138;50.966;6.968;2023-04-07T05:35:03;10.20;99.90
46440;DHT22;32138;50.966;6.968;2023-04-07T05:36:05;10.20;99.90
46440;DHT22;32138;50.966;6.968;2023-04-07T05:37:06;10.20;99.90
46440;DHT22;32138;50.966;6.968;2023-04-07T05:38:06;10.20;99.90
46440;DHT22;32138;50.966;6.968;2023-04-07T05:39:07;10.10;99.90
46440;DHT22;32138;50.966;6.968;2023-04-07T05:40:08;10.10;99.90
46440;DHT22;32138;50.966;6.968;2023-04-07T05:41:09;10.20;99.90
46440;DHT22;32138;50.966;6.968;2023-04-07T05:42:10;10.20;99.90
46440;DHT22;32138;50.966;6.968;2023-04-07T05:43:11;10.20;99.90
46440;DHT22;32138;50.966;6.968;2023-04-07T05:44:11;10.20;99.90
46440;DHT22;32138;50.966;6.968;2023-04-07T05:45:12;10.10;99.90
46440;DHT22;32138;50.966;6.968;2023-04-07T05:46:13;10.10;99.90
46440;DHT22;32138;50.966;6.968;2023-04-07T05:47:14;10.00;99.90
46440;DHT22;32138;50.966;6.968;2023-04-07T05:48:15;10.10;99.90
46440;DHT22;32138;50.966;6.968;2023-04-07T05:49:15;10.10;99.90
46440;DHT22;32138;50.966;6.968;2023-04-07T05:50:17;10.00;99.90
46440;DHT22;32138;50.966;6.968;2023-04-07T05:51:17;10.00;99.90
46440;DHT22;32138;50.966;6.968;2023-04-07T05:52:18;9.90;99.90
46440;DHT22;32138;50.966;6.968;2023-04-07T05:53:19;10.00;99.90
46440;DHT22;32138;50.966;6.968;2023-04-07T05:54:20;9.90;99.90
46440;DHT22;32138;50.966;6.968;2023-04-07T05:55:21;9.90;99.90
46440;DHT22;32138;50.966;6.968;2023-04-07T05:56:22;9.90;99.90
46440;DHT22;32138;50.966;6.968;2023-04-07T05:57:22;9.90;99.90
46440;DHT22;32138;50.966;6.968;2023-04-07T05:58:23;10.00;99.90
46440;DHT22;32138;50.966;6.968;2023-04-07T05:59:24;10.00;99.90
46440;DHT22;32138;50.966;6.968;2023-04-07T06:00:24;10.00;99.90
46440;DHT22;32138;50.966;6.968;2023-04-07T06:01:27;10.00;99.90
46440;DHT22;32138;50.966;6.968;2023-04-07T06:02:28;10.00;99.90
46440;DHT22;32138;50.966;6.968;2023-04-07T06:03:29;10.10;99.90
46440;DHT22;32138;50.966;6.968;2023-04-07T06:04:30;10.00;99.90
46440;DHT22;32138;50.966;6.968;2023-04-07T06:05:32;10.00;99.90
46440;DHT22;32138;50.966;6.968;2023-04-07T06:06:33;10.00;99.90
46440;DHT22;32138;50.966;6.968;2023-04-07T06:07:34;10.00;99.90
46440;DHT22;32138;50.966;6.968;2023-04-07T06:08:35;10.00;99.90
46440;DHT22;32138;50.966;6.968;2023-04-07T06:09:36;9.90;99.90
46440;DHT22;32138;50.966;6.968;2023-04-07T06:10:37;10.00;99.90
46440;DHT22;32138;50.966;6.968;2023-04-07T06:11:38;10.00;99.90
46440;DHT22;32138;50.966;6.968;2023-04-07T06:12:39;10.00;99.90
46440;DHT22;32138;50.966;6.968;2023-04-07T06:13:40;10.00;99.90
46440;DHT22;32138;50.966;6.968;2023-04-07T06:14:41;10.00;99.90
46440;DHT22;32138;50.966;6.968;2023-04-07T06:15:42;9.80;99.90
46440;DHT22;32138;50.966;6.968;2023-04-07T06:16:43;9.90;99.90
46440;DHT22;32138;50.966;6.968;2023-04-07T06:17:43;9.80;99.90
46440;DHT22;32138;50.966;6.968;2023-04-07T06:18:45;9.80;99.90
46440;DHT22;32138;50.966;6.968;2023-04-07T06:19:46;9.90;99.90
46440;DHT22;32138;50.966;6.968;2023-04-07T06:20:46;9.90;99.90
46440;DHT22;32138;50.966;6.968;2023-04-07T06:21:47;10.00;99.90
46440;DHT22;32138;50.966;6.968;2023-04-07T06:22:48;10.00;99.90
46440;DHT22;32138;50.966;6.968;2023-04-07T06:23:48;10.00;99.90
46440;DHT22;32138;50.966;6.968;2023-04-07T06:24:49;10.10;99.90
46440;DHT22;32138;50.966;6.968;2023-04-07T06:25:50;10.10;99.90
46440;DHT22;32138;50.966;6.968;2023-04-07T06:26:52;10.10;99.90
46440;DHT22;32138;50.966;6.968;2023-04-07T06:27:54;10.00;99.90
46440;DHT22;32138;50.966;6.968;2023-04-07T06:28:55;10.00;99.90
46440;DHT22;32138;50.966;6.968;2023-04-07T06:29:56;10.00;99.90
46440;DHT22;32138;50.966;6.968;2023-04-07T06:30:57;10.00;99.90
46440;DHT22;32138;50.966;6.968;2023-04-07T06:31:58;10.10;99.90
46440;DHT22;32138;50.966;6.968;2023-04-07T06:32:59;10.10;99.90
46440;DHT22;32138;50.966;6.968;2023-04-07T06:34:00;10.00;99.90
46440;DHT22;32138;50.966;6.968;2023-04-07T06:35:00;9.90;99.90
46440;DHT22;32138;50.966;6.968;2023-04-07T06:36:01;10.00;99.90
46440;DHT22;32138;50.966;6.968;2023-04-07T06:37:02;10.00;99.90
46440;DHT22;32138;50.966;6.968;2023-04-07T06:38:04;10.00;99.90
46440;DHT22;32138;50.966;6.968;2023-04-07T06:39:05;10.00;99.90